sensor_id;sensor_type;location;lat;lon;timestamp;P1;durP1;ratioP1;P2;durP2;ratioP2
43877;SDS011;29815;48.184;11.268;2023-04-15T00:01:11;7.22;;;3.70;;
43877;SDS011;29815;48.184;11.268;2023-04-15T00:03:45;8.07;;;4.22;;
43877;SDS011;29815;48.184;11.268;2023-04-15T00:06:16;9.23;;;4.18;;
43877;SDS011;29815;48.184;11.268;2023-04-15T00:08:47;5.13;;;3.35;;
43877;SDS011;29815;48.184;11.268;2023-04-15T00:11:18;6.53;;;3.80;;
43877;SDS011;29815;48.184;11.268;2023-04-15T00:13:47;7.05;;;3.90;;
43877;SDS011;29815;48.184;11.268;2023-04-15T00:16:18;6.03;;;3.38;;
43877;SDS011;29815;48.184;11.268;2023-04-15T00:18:48;9.45;;;3.85;;
43877;SDS011;29815;48.184;11.268;2023-04-15T00:21:18;6.65;;;3.20;;
43877;SDS011;29815;48.184;11.268;2023-04-15T00:23:47;6.53;;;3.92;;
43877;SDS011;29815;48.184;11.268;2023-04-15T00:26:20;7.32;;;4.55;;
43877;SDS011;29815;48.184;11.268;2023-04-15T00:28:49;5.85;;;3.33;;
43877;SDS011;29815;48.184;11.268;2023-04-15T00:31:20;6.88;;;3.90;;
43877;SDS011;29815;48.184;11.268;2023-04-15T00:33:50;5.80;;;3.30;;
43877;SDS011;29815;48.184;11.268;2023-04-15T00:36:21;8.20;;;3.55;;
43877;SDS011;29815;48.184;11.268;2023-04-15T00:38:50;5.80;;;3.60;;
43877;SDS011;29815;48.184;11.268;2023-04-15T00:41:20;7.95;;;3.55;;
43877;SDS011;29815;48.184;11.268;2023-04-15T00:43:50;6.03;;;3.60;;
43877;SDS011;29815;48.184;11.268;2023-04-15T00:46:22;5.10;;;3.75;;
43877;SDS011;29815;48.184;11.268;2023-04-15T00:48:52;5.60;;;3.83;;
43877;SDS011;29815;48.184;11.268;2023-04-15T00:51:22;5.40;;;3.67;;
43877;SDS011;29815;48.184;11.268;2023-04-15T00:53:52;6.85;;;4.22;;
43877;SDS011;29815;48.184;11.268;2023-04-15T00:56:22;8.55;;;4.25;;
43877;SDS011;29815;48.184;11.268;2023-04-15T00:58:52;5.93;;;4.00;;
43877;SDS011;29815;48.184;11.268;2023-04-15T01:01:23;7.65;;;4.78;;
43877;SDS011;29815;48.184;11.268;2023-04-15T01:03:55;7.45;;;3.83;;
43877;SDS011;29815;48.184;11.268;2023-04-15T01:06:26;5.03;;;3.50;;
43877;SDS011;29815;48.184;11.268;2023-04-15T01:08:57;8.75;;;4.72;;
43877;SDS011;29815;48.184;11.268;2023-04-15T01:11:29;5.38;;;3.50;;
43877;SDS011;29815;48.184;11.268;2023-04-15T01:14:01;9.27;;;3.58;;
43877;SDS011;29815;48.184;11.268;2023-04-15T01:16:32;6.13;;;3.25;;
43877;SDS011;29815;48.184;11.268;2023-04-15T01:19:02;6.72;;;3.83;;
43877;SDS011;29815;48.184;11.268;2023-04-15T01:21:31;6.32;;;3.72;;
43877;SDS011;29815;48.184;11.268;2023-04-15T01:24:04;9.93;;;4.47;;
43877;SDS011;29815;48.184;11.268;2023-04-15T01:26:39;5.70;;;3.65;;
43877;SDS011;29815;48.184;11.268;2023-04-15T01:29:11;8.50;;;4.20;;
43877;SDS011;29815;48.184;11.268;2023-04-15T01:31:47;8.07;;;4.05;;
43877;SDS011;29815;48.184;11.268;2023-04-15T01:34:38;5.78;;;4.10;;
43877;SDS011;29815;48.184;11.268;2023-04-15T01:37:25;8.23;;;4.38;;
43877;SDS011;29815;48.184;11.268;2023-04-15T01:39:55;6.05;;;3.78;;
43877;SDS011;29815;48.184;11.268;2023-04-15T01:42:27;7.80;;;4.40;;
43877;SDS011;29815;48.184;11.268;2023-04-15T01:44:58;8.23;;;3.90;;
43877;SDS011;29815;48.184;11.268;2023-04-15T01:47:29;6.47;;;3.83;;
43877;SDS011;29815;48.184;11.268;2023-04-15T01:50:01;7.97;;;3.80;;
43877;SDS011;29815;48.184;11.268;2023-04-15T01:52:32;6.63;;;4.00;;
43877;SDS011;29815;48.184;11.268;2023-04-15T01:55:04;10.23;;;4.00;;
43877;SDS011;29815;48.184;11.268;2023-04-15T01:57:38;5.25;;;4.10;;
43877;SDS011;29815;48.184;11.268;2023-04-15T02:00:09;6.63;;;3.88;;
43877;SDS011;29815;48.184;11.268;2023-04-15T02:02:41;6.93;;;4.40;;
43877;SDS011;29815;48.184;11.268;2023-04-15T02:05:12;8.10;;;4.05;;
43877;SDS011;29815;48.184;11.268;2023-04-15T02:07:48;6.35;;;4.22;;
43877;SDS011;29815;48.184;11.268;2023-04-15T02:10:18;7.68;;;4.93;;
43877;SDS011;29815;48.184;11.268;2023-04-15T02:12:51;7.10;;;4.13;;
43877;SDS011;29815;48.184;11.268;2023-04-15T02:15:22;5.65;;;4.05;;
43877;SDS011;29815;48.184;11.268;2023-04-15T02:17:53;6.53;;;4.65;;
43877;SDS011;29815;48.184;11.268;2023-04-15T02:20:24;6.78;;;4.03;;
43877;SDS011;29815;48.184;11.268;2023-04-15T02:22:59;6.55;;;3.90;;
43877;SDS011;29815;48.184;11.268;2023-04-15T02:25:29;8.68;;;4.47;;
43877;SDS011;29815;48.184;11.268;2023-04-15T02:28:02;9.57;;;4.18;;
43877;SDS011;29815;48.184;11.268;2023-04-15T02:30:33;8.20;;;4.25;;
43877;SDS011;29815;48.184;11.268;2023-04-15T02:33:04;8.13;;;4.63;;
43877;SDS011;29815;48.184;11.268;2023-04-15T02:35:36;6.72;;;4.80;;
43877;SDS011;29815;48.184;11.268;2023-04-15T02:38:10;7.63;;;4.10;;
43877;SDS011;29815;48.184;11.268;2023-04-15T02:40:42;6.03;;;4.38;;
43877;SDS011;29815;48.184;11.268;2023-04-15T02:43:14;9.50;;;5.32;;
43877;SDS011;29815;48.184;11.268;2023-04-15T02:45:46;6.32;;;4.28;;
43877;SDS011;29815;48.184;11.268;2023-04-15T02:48:18;12.30;;;3.83;;
43877;SDS011;29815;48.184;11.268;2023-04-15T02:50:49;5.68;;;3.47;;
43877;SDS011;29815;48.184;11.268;2023-04-15T02:53:20;5.25;;;3.55;;
43877;SDS011;29815;48.184;11.268;2023-04-15T02:55:51;7.30;;;3.80;;
43877;SDS011;29815;48.184;11.268;2023-04-15T02:58:23;5.63;;;3.92;;
43877;SDS011;29815;48.184;11.268;2023-04-15T03:00:54;6.18;;;4.20;;
43877;SDS011;29815;48.184;11.268;2023-04-15T03:03:25;5.70;;;3.53;;
43877;SDS011;29815;48.184;11.268;2023-04-15T03:05:56;5.60;;;3.70;;
43877;SDS011;29815;48.184;11.268;2023-04-15T03:08:28;9.57;;;4.35;;
43877;SDS011;29815;48.184;11.268;2023-04-15T03:10:59;6.15;;;3.58;;
43877;SDS011;29815;48.184;11.268;2023-04-15T03:13:32;7.25;;;3.92;;
43877;SDS011;29815;48.184;11.268;2023-04-15T03:16:10;9.82;;;4.50;;
43877;SDS011;29815;48.184;11.268;2023-04-15T03:18:42;8.73;;;3.65;;
43877;SDS011;29815;48.184;11.268;2023-04-15T03:21:13;6.72;;;3.30;;
43877;SDS011;29815;48.184;11.268;2023-04-15T03:23:47;6.83;;;3.20;;
43877;SDS011;29815;48.184;11.268;2023-04-15T03:26:25;4.83;;;3.03;;
43877;SDS011;29815;48.184;11.268;2023-04-15T03:29:02;5.88;;;2.70;;
43877;SDS011;29815;48.184;11.268;2023-04-15T03:31:33;7.18;;;3.10;;
43877;SDS011;29815;48.184;11.268;2023-04-15T03:34:04;6.65;;;3.10;;
43877;SDS011;29815;48.184;11.268;2023-04-15T03:36:35;8.13;;;3.03;;
43877;SDS011;29815;48.184;11.268;2023-04-15T03:39:05;5.18;;;3.10;;
43877;SDS011;29815;48.184;11.268;2023-04-15T03:41:36;9.85;;;3.85;;
43877;SDS011;29815;48.184;11.268;2023-04-15T03:44:08;7.05;;;3.83;;
43877;SDS011;29815;48.184;11.268;2023-04-15T03:46:39;4.53;;;2.90;;
43877;SDS011;29815;48.184;11.268;2023-04-15T03:49:12;5.00;;;3.15;;
43877;SDS011;29815;48.184;11.268;2023-04-15T03:51:44;7.15;;;3.63;;
43877;SDS011;29815;48.184;11.268;2023-04-15T03:54:14;6.93;;;2.97;;
43877;SDS011;29815;48.184;11.268;2023-04-15T03:56:45;6.80;;;3.22;;
43877;SDS011;29815;48.184;11.268;2023-04-15T03:59:17;6.93;;;3.00;;
43877;SDS011;29815;48.184;11.268;2023-04-15T04:01:48;8.77;;;3.58;;
43877;SDS011;29815;48.184;11.268;2023-04-15T04:04:19;4.65;;;3.08;;
43877;SDS011;29815;48.184;11.268;2023-04-15T04:06:50;9.20;;;3.13;;
43877;SDS011;29815;48.184;11.268;2023-04-15T04:09:21;5.00;;;3.22;;
43877;SDS011;29815;48.184;11.268;2023-04-15T04:11:52;8.38;;;3.92;;
43877;SDS011;29815;48.184;11.268;2023-04-15T04:14:25;6.70;;;3.10;;
43877;SDS011;29815;48.184;11.268;2023-04-15T04:16:57;5.25;;;2.95;;
43877;SDS011;29815;48.184;11.268;2023-04-15T04:19:28;5.75;;;3.20;;
43877;SDS011;29815;48.184;11.268;2023-04-15T04:21:59;6.32;;;2.85;;
43877;SDS011;29815;48.184;11.268;2023-04-15T04:24:30;4.43;;;2.80;;
43877;SDS011;29815;48.184;11.268;2023-04-15T04:27:01;7.78;;;2.75;;
43877;SDS011;29815;48.184;11.268;2023-04-15T04:29:33;5.38;;;3.38;;
43877;SDS011;29815;48.184;11.268;2023-04-15T04:32:04;6.38;;;3.30;;
43877;SDS011;29815;48.184;11.268;2023-04-15T04:34:36;5.70;;;3.00;;
43877;SDS011;29815;48.184;11.268;2023-04-15T04:37:06;6.15;;;2.75;;
43877;SDS011;29815;48.184;11.268;2023-04-15T04:39:37;6.05;;;2.60;;
43877;SDS011;29815;48.184;11.268;2023-04-15T04:42:08;5.38;;;2.72;;
43877;SDS011;29815;48.184;11.268;2023-04-15T04:44:44;6.13;;;2.60;;
43877;SDS011;29815;48.184;11.268;2023-04-15T04:47:15;8.23;;;3.30;;
43877;SDS011;29815;48.184;11.268;2023-04-15T04:49:47;8.95;;;3.88;;
43877;SDS011;29815;48.184;11.268;2023-04-15T04:52:18;12.25;;;4.70;;
43877;SDS011;29815;48.184;11.268;2023-04-15T04:54:49;8.48;;;3.75;;
43877;SDS011;29815;48.184;11.268;2023-04-15T04:57:20;6.28;;;3.03;;
43877;SDS011;29815;48.184;11.268;2023-04-15T04:59:53;9.25;;;2.95;;
43877;SDS011;29815;48.184;11.268;2023-04-15T05:02:24;8.48;;;3.00;;
43877;SDS011;29815;48.184;11.268;2023-04-15T05:04:56;5.03;;;3.05;;
43877;SDS011;29815;48.184;11.268;2023-04-15T05:07:27;3.60;;;2.10;;
43877;SDS011;29815;48.184;11.268;2023-04-15T05:09:58;4.70;;;2.03;;
43877;SDS011;29815;48.184;11.268;2023-04-15T05:12:30;5.57;;;2.53;;
43877;SDS011;29815;48.184;11.268;2023-04-15T05:15:03;4.82;;;2.75;;
43877;SDS011;29815;48.184;11.268;2023-04-15T05:17:36;3.35;;;2.13;;
43877;SDS011;29815;48.184;11.268;2023-04-15T05:20:07;5.97;;;2.28;;
43877;SDS011;29815;48.184;11.268;2023-04-15T05:22:39;5.93;;;2.03;;
43877;SDS011;29815;48.184;11.268;2023-04-15T05:25:10;3.88;;;2.35;;
43877;SDS011;29815;48.184;11.268;2023-04-15T05:27:41;4.68;;;2.40;;
43877;SDS011;29815;48.184;11.268;2023-04-15T05:30:14;4.50;;;2.30;;
43877;SDS011;29815;48.184;11.268;2023-04-15T05:32:45;7.00;;;3.72;;
43877;SDS011;29815;48.184;11.268;2023-04-15T05:35:16;5.88;;;2.08;;
43877;SDS011;29815;48.184;11.268;2023-04-15T05:37:46;4.22;;;2.88;;
43877;SDS011;29815;48.184;11.268;2023-04-15T05:40:17;5.07;;;2.30;;
43877;SDS011;29815;48.184;11.268;2023-04-15T05:42:48;4.55;;;2.10;;
43877;SDS011;29815;48.184;11.268;2023-04-15T05:45:20;3.92;;;2.03;;
43877;SDS011;29815;48.184;11.268;2023-04-15T05:47:51;5.50;;;2.00;;
43877;SDS011;29815;48.184;11.268;2023-04-15T05:50:22;4.47;;;2.20;;
43877;SDS011;29815;48.184;11.268;2023-04-15T05:52:54;3.38;;;1.90;;
43877;SDS011;29815;48.184;11.268;2023-04-15T05:55:24;6.18;;;2.53;;
43877;SDS011;29815;48.184;11.268;2023-04-15T05:57:55;5.60;;;2.80;;
43877;SDS011;29815;48.184;11.268;2023-04-15T06:00:27;4.38;;;2.88;;
43877;SDS011;29815;48.184;11.268;2023-04-15T06:03:01;5.35;;;2.53;;
43877;SDS011;29815;48.184;11.268;2023-04-15T06:05:32;3.20;;;1.98;;
43877;SDS011;29815;48.184;11.268;2023-04-15T06:08:03;3.50;;;2.10;;
43877;SDS011;29815;48.184;11.268;2023-04-15T06:10:36;4.40;;;2.50;;
43877;SDS011;29815;48.184;11.268;2023-04-15T06:13:06;3.65;;;2.13;;
43877;SDS011;29815;48.184;11.268;2023-04-15T06:15:39;4.28;;;2.05;;
43877;SDS011;29815;48.184;11.268;2023-04-15T06:18:10;4.00;;;1.95;;
43877;SDS011;29815;48.184;11.268;2023-04-15T06:20:41;2.95;;;2.05;;
43877;SDS011;29815;48.184;11.268;2023-04-15T06:23:12;5.63;;;2.03;;
43877;SDS011;29815;48.184;11.268;2023-04-15T06:25:43;3.03;;;1.58;;
43877;SDS011;29815;48.184;11.268;2023-04-15T06:28:14;3.10;;;1.70;;
43877;SDS011;29815;48.184;11.268;2023-04-15T06:30:46;6.97;;;3.00;;
43877;SDS011;29815;48.184;11.268;2023-04-15T06:33:17;8.43;;;2.58;;
43877;SDS011;29815;48.184;11.268;2023-04-15T06:35:48;6.00;;;2.67;;
43877;SDS011;29815;48.184;11.268;2023-04-15T06:38:19;5.88;;;2.47;;
43877;SDS011;29815;48.184;11.268;2023-04-15T06:40:50;4.05;;;2.05;;
43877;SDS011;29815;48.184;11.268;2023-04-15T06:43:21;7.13;;;2.00;;
43877;SDS011;29815;48.184;11.268;2023-04-15T06:45:53;4.45;;;2.22;;
43877;SDS011;29815;48.184;11.268;2023-04-15T06:48:24;4.03;;;2.03;;
43877;SDS011;29815;48.184;11.268;2023-04-15T06:50:55;4.95;;;1.40;;
43877;SDS011;29815;48.184;11.268;2023-04-15T06:53:26;3.92;;;2.17;;
43877;SDS011;29815;48.184;11.268;2023-04-15T06:55:57;4.57;;;2.63;;
43877;SDS011;29815;48.184;11.268;2023-04-15T06:58:28;4.60;;;1.98;;
43877;SDS011;29815;48.184;11.268;2023-04-15T07:01:01;6.47;;;2.15;;
43877;SDS011;29815;48.184;11.268;2023-04-15T07:03:32;5.03;;;2.00;;
43877;SDS011;29815;48.184;11.268;2023-04-15T07:06:03;5.03;;;1.67;;
43877;SDS011;29815;48.184;11.268;2023-04-15T07:08:35;5.20;;;2.10;;
43877;SDS011;29815;48.184;11.268;2023-04-15T07:11:06;3.83;;;1.77;;
43877;SDS011;29815;48.184;11.268;2023-04-15T07:13:37;3.65;;;1.63;;
43877;SDS011;29815;48.184;11.268;2023-04-15T07:16:09;3.97;;;2.33;;
43877;SDS011;29815;48.184;11.268;2023-04-15T07:18:40;2.50;;;1.65;;
43877;SDS011;29815;48.184;11.268;2023-04-15T07:21:11;5.78;;;2.33;;
43877;SDS011;29815;48.184;11.268;2023-04-15T07:23:41;5.18;;;2.17;;
43877;SDS011;29815;48.184;11.268;2023-04-15T07:26:12;6.13;;;2.25;;
43877;SDS011;29815;48.184;11.268;2023-04-15T07:28:43;3.53;;;1.92;;
43877;SDS011;29815;48.184;11.268;2023-04-15T07:31:16;5.05;;;1.65;;
43877;SDS011;29815;48.184;11.268;2023-04-15T07:33:47;3.10;;;1.60;;
43877;SDS011;29815;48.184;11.268;2023-04-15T07:36:18;3.20;;;1.45;;
43877;SDS011;29815;48.184;11.268;2023-04-15T07:38:48;4.55;;;1.90;;
43877;SDS011;29815;48.184;11.268;2023-04-15T07:41:20;3.35;;;1.38;;
43877;SDS011;29815;48.184;11.268;2023-04-15T07:43:50;2.35;;;1.48;;
43877;SDS011;29815;48.184;11.268;2023-04-15T07:46:23;4.07;;;2.05;;
43877;SDS011;29815;48.184;11.268;2023-04-15T07:51:25;7.35;;;1.98;;
43877;SDS011;29815;48.184;11.268;2023-04-15T07:53:57;3.45;;;1.83;;
43877;SDS011;29815;48.184;11.268;2023-04-15T07:56:28;4.18;;;1.30;;
43877;SDS011;29815;48.184;11.268;2023-04-15T07:58:59;3.80;;;1.83;;
43877;SDS011;29815;48.184;11.268;2023-04-15T08:01:33;4.22;;;1.85;;
43877;SDS011;29815;48.184;11.268;2023-04-15T08:04:04;3.25;;;1.88;;
43877;SDS011;29815;48.184;11.268;2023-04-15T08:06:36;3.60;;;1.70;;
43877;SDS011;29815;48.184;11.268;2023-04-15T08:09:07;4.80;;;3.20;;
43877;SDS011;29815;48.184;11.268;2023-04-15T08:11:39;7.30;;;2.67;;
43877;SDS011;29815;48.184;11.268;2023-04-15T08:14:10;4.72;;;1.98;;
43877;SDS011;29815;48.184;11.268;2023-04-15T08:16:42;4.47;;;2.10;;
43877;SDS011;29815;48.184;11.268;2023-04-15T08:19:13;4.25;;;1.92;;
43877;SDS011;29815;48.184;11.268;2023-04-15T08:21:44;3.70;;;1.60;;
43877;SDS011;29815;48.184;11.268;2023-04-15T08:24:14;6.03;;;2.42;;
43877;SDS011;29815;48.184;11.268;2023-04-15T08:26:45;4.65;;;2.00;;
43877;SDS011;29815;48.184;11.268;2023-04-15T08:29:16;6.47;;;2.70;;
43877;SDS011;29815;48.184;11.268;2023-04-15T08:31:48;4.07;;;1.80;;
43877;SDS011;29815;48.184;11.268;2023-04-15T08:34:19;7.27;;;2.70;;
43877;SDS011;29815;48.184;11.268;2023-04-15T08:36:50;3.72;;;2.35;;
43877;SDS011;29815;48.184;11.268;2023-04-15T08:39:21;4.05;;;2.53;;
43877;SDS011;29815;48.184;11.268;2023-04-15T08:41:55;4.95;;;1.95;;
43877;SDS011;29815;48.184;11.268;2023-04-15T08:44:32;4.28;;;1.98;;
43877;SDS011;29815;48.184;11.268;2023-04-15T08:47:06;5.68;;;2.28;;
43877;SDS011;29815;48.184;11.268;2023-04-15T08:49:38;3.70;;;1.90;;
43877;SDS011;29815;48.184;11.268;2023-04-15T08:52:10;5.72;;;1.75;;
43877;SDS011;29815;48.184;11.268;2023-04-15T08:54:42;4.43;;;2.30;;
43877;SDS011;29815;48.184;11.268;2023-04-15T08:57:12;5.35;;;2.30;;
43877;SDS011;29815;48.184;11.268;2023-04-15T08:59:44;6.35;;;1.98;;
43877;SDS011;29815;48.184;11.268;2023-04-15T09:02:18;4.53;;;2.20;;
43877;SDS011;29815;48.184;11.268;2023-04-15T09:04:51;5.05;;;2.50;;
43877;SDS011;29815;48.184;11.268;2023-04-15T09:07:22;3.35;;;2.13;;
43877;SDS011;29815;48.184;11.268;2023-04-15T09:09:53;7.35;;;2.28;;
43877;SDS011;29815;48.184;11.268;2023-04-15T09:12:24;4.35;;;2.40;;
43877;SDS011;29815;48.184;11.268;2023-04-15T09:14:55;9.23;;;2.95;;
43877;SDS011;29815;48.184;11.268;2023-04-15T09:17:28;4.85;;;2.28;;
43877;SDS011;29815;48.184;11.268;2023-04-15T09:20:09;6.85;;;2.90;;
43877;SDS011;29815;48.184;11.268;2023-04-15T09:22:45;3.90;;;2.30;;
43877;SDS011;29815;48.184;11.268;2023-04-15T09:25:25;5.63;;;2.70;;
43877;SDS011;29815;48.184;11.268;2023-04-15T09:28:01;4.88;;;3.10;;
43877;SDS011;29815;48.184;11.268;2023-04-15T09:30:33;5.38;;;2.30;;
43877;SDS011;29815;48.184;11.268;2023-04-15T09:33:05;5.00;;;2.70;;
43877;SDS011;29815;48.184;11.268;2023-04-15T09:35:38;3.70;;;2.45;;
43877;SDS011;29815;48.184;11.268;2023-04-15T09:38:10;4.10;;;2.65;;
43877;SDS011;29815;48.184;11.268;2023-04-15T09:40:41;5.40;;;2.58;;
43877;SDS011;29815;48.184;11.268;2023-04-15T09:43:12;4.43;;;2.80;;
43877;SDS011;29815;48.184;11.268;2023-04-15T09:45:48;4.18;;;2.67;;
43877;SDS011;29815;48.184;11.268;2023-04-15T09:48:23;6.90;;;2.90;;
43877;SDS011;29815;48.184;11.268;2023-04-15T09:50:56;5.95;;;2.78;;
43877;SDS011;29815;48.184;11.268;2023-04-15T09:56:02;3.90;;;2.35;;
43877;SDS011;29815;48.184;11.268;2023-04-15T10:01:06;4.35;;;2.72;;
43877;SDS011;29815;48.184;11.268;2023-04-15T10:03:40;4.77;;;3.20;;
43877;SDS011;29815;48.184;11.268;2023-04-15T10:06:12;4.13;;;2.78;;
43877;SDS011;29815;48.184;11.268;2023-04-15T10:08:44;6.75;;;3.05;;
43877;SDS011;29815;48.184;11.268;2023-04-15T10:11:16;6.35;;;3.15;;
43877;SDS011;29815;48.184;11.268;2023-04-15T10:13:49;3.67;;;2.88;;
43877;SDS011;29815;48.184;11.268;2023-04-15T10:16:20;5.10;;;2.63;;
43877;SDS011;29815;48.184;11.268;2023-04-15T10:18:58;7.03;;;2.72;;
43877;SDS011;29815;48.184;11.268;2023-04-15T10:21:32;9.23;;;3.15;;
43877;SDS011;29815;48.184;11.268;2023-04-15T10:24:04;4.20;;;3.20;;
43877;SDS011;29815;48.184;11.268;2023-04-15T10:26:36;7.30;;;2.90;;
43877;SDS011;29815;48.184;11.268;2023-04-15T10:29:07;4.85;;;2.42;;
43877;SDS011;29815;48.184;11.268;2023-04-15T10:31:39;5.50;;;3.67;;
43877;SDS011;29815;48.184;11.268;2023-04-15T10:34:12;5.25;;;3.38;;
43877;SDS011;29815;48.184;11.268;2023-04-15T10:36:44;4.68;;;2.88;;
43877;SDS011;29815;48.184;11.268;2023-04-15T10:42:11;8.38;;;3.00;;
43877;SDS011;29815;48.184;11.268;2023-04-15T10:44:44;7.45;;;3.05;;
43877;SDS011;29815;48.184;11.268;2023-04-15T10:47:19;3.97;;;2.85;;
43877;SDS011;29815;48.184;11.268;2023-04-15T10:49:55;3.85;;;3.08;;
43877;SDS011;29815;48.184;11.268;2023-04-15T10:52:28;5.82;;;3.60;;
43877;SDS011;29815;48.184;11.268;2023-04-15T10:55:02;5.35;;;3.38;;
43877;SDS011;29815;48.184;11.268;2023-04-15T10:57:44;6.80;;;3.80;;
43877;SDS011;29815;48.184;11.268;2023-04-15T11:00:17;6.15;;;3.53;;
43877;SDS011;29815;48.184;11.268;2023-04-15T11:02:51;6.32;;;3.75;;
43877;SDS011;29815;48.184;11.268;2023-04-15T11:08:51;6.32;;;3.92;;
43877;SDS011;29815;48.184;11.268;2023-04-15T11:14:38;4.38;;;3.67;;
43877;SDS011;29815;48.184;11.268;2023-04-15T11:17:10;8.10;;;4.40;;
43877;SDS011;29815;48.184;11.268;2023-04-15T11:19:41;7.70;;;3.85;;
43877;SDS011;29815;48.184;11.268;2023-04-15T11:22:14;6.68;;;4.00;;
43877;SDS011;29815;48.184;11.268;2023-04-15T11:24:47;4.93;;;3.70;;
43877;SDS011;29815;48.184;11.268;2023-04-15T11:27:20;6.72;;;4.38;;
43877;SDS011;29815;48.184;11.268;2023-04-15T11:29:52;6.37;;;3.67;;
43877;SDS011;29815;48.184;11.268;2023-04-15T11:32:22;7.93;;;3.58;;
43877;SDS011;29815;48.184;11.268;2023-04-15T11:34:53;8.15;;;4.55;;
43877;SDS011;29815;48.184;11.268;2023-04-15T11:37:29;7.68;;;4.00;;
43877;SDS011;29815;48.184;11.268;2023-04-15T11:40:01;9.23;;;5.25;;
43877;SDS011;29815;48.184;11.268;2023-04-15T11:42:33;6.65;;;4.40;;
43877;SDS011;29815;48.184;11.268;2023-04-15T11:45:17;6.95;;;4.65;;
43877;SDS011;29815;48.184;11.268;2023-04-15T11:47:48;6.35;;;4.68;;
43877;SDS011;29815;48.184;11.268;2023-04-15T11:50:20;5.57;;;3.70;;
43877;SDS011;29815;48.184;11.268;2023-04-15T11:52:53;4.85;;;4.13;;
43877;SDS011;29815;48.184;11.268;2023-04-15T11:55:24;6.80;;;3.88;;
43877;SDS011;29815;48.184;11.268;2023-04-15T11:58:07;5.70;;;3.50;;
43877;SDS011;29815;48.184;11.268;2023-04-15T12:00:45;5.50;;;4.20;;
43877;SDS011;29815;48.184;11.268;2023-04-15T12:03:17;4.78;;;3.58;;
43877;SDS011;29815;48.184;11.268;2023-04-15T12:06:06;7.50;;;3.63;;
43877;SDS011;29815;48.184;11.268;2023-04-15T12:08:49;5.90;;;3.67;;
43877;SDS011;29815;48.184;11.268;2023-04-15T12:11:30;6.57;;;3.90;;
43877;SDS011;29815;48.184;11.268;2023-04-15T12:14:11;6.75;;;4.63;;
43877;SDS011;29815;48.184;11.268;2023-04-15T12:16:50;5.65;;;3.47;;
43877;SDS011;29815;48.184;11.268;2023-04-15T12:19:25;4.80;;;4.30;;
43877;SDS011;29815;48.184;11.268;2023-04-15T12:21:56;6.68;;;3.78;;
43877;SDS011;29815;48.184;11.268;2023-04-15T12:24:31;6.38;;;3.70;;
43877;SDS011;29815;48.184;11.268;2023-04-15T12:27:03;4.63;;;4.13;;
43877;SDS011;29815;48.184;11.268;2023-04-15T12:29:35;8.48;;;3.55;;
43877;SDS011;29815;48.184;11.268;2023-04-15T12:32:06;4.85;;;4.20;;
43877;SDS011;29815;48.184;11.268;2023-04-15T12:34:38;5.32;;;3.03;;
43877;SDS011;29815;48.184;11.268;2023-04-15T12:37:12;5.78;;;3.30;;
43877;SDS011;29815;48.184;11.268;2023-04-15T12:39:44;4.35;;;3.25;;
43877;SDS011;29815;48.184;11.268;2023-04-15T12:42:16;5.50;;;2.70;;
43877;SDS011;29815;48.184;11.268;2023-04-15T12:44:46;5.20;;;2.35;;
43877;SDS011;29815;48.184;11.268;2023-04-15T12:47:16;3.33;;;1.83;;
43877;SDS011;29815;48.184;11.268;2023-04-15T12:49:45;5.60;;;1.90;;
43877;SDS011;29815;48.184;11.268;2023-04-15T12:52:16;3.53;;;2.17;;
43877;SDS011;29815;48.184;11.268;2023-04-15T12:54:46;3.38;;;2.00;;
43877;SDS011;29815;48.184;11.268;2023-04-15T12:57:16;3.35;;;2.33;;
43877;SDS011;29815;48.184;11.268;2023-04-15T12:59:45;5.57;;;2.35;;
43877;SDS011;29815;48.184;11.268;2023-04-15T13:02:15;3.95;;;2.30;;
43877;SDS011;29815;48.184;11.268;2023-04-15T13:04:45;4.28;;;2.20;;
43877;SDS011;29815;48.184;11.268;2023-04-15T13:07:14;5.68;;;2.67;;
43877;SDS011;29815;48.184;11.268;2023-04-15T13:09:44;4.60;;;2.72;;
43877;SDS011;29815;48.184;11.268;2023-04-15T13:12:15;5.22;;;2.90;;
43877;SDS011;29815;48.184;11.268;2023-04-15T13:14:45;6.00;;;2.67;;
43877;SDS011;29815;48.184;11.268;2023-04-15T13:17:14;3.65;;;2.38;;
43877;SDS011;29815;48.184;11.268;2023-04-15T13:19:46;3.47;;;2.83;;
43877;SDS011;29815;48.184;11.268;2023-04-15T13:22:16;4.80;;;3.00;;
43877;SDS011;29815;48.184;11.268;2023-04-15T13:24:46;4.00;;;3.60;;
43877;SDS011;29815;48.184;11.268;2023-04-15T13:27:17;5.65;;;3.65;;
43877;SDS011;29815;48.184;11.268;2023-04-15T13:29:46;5.47;;;3.78;;
43877;SDS011;29815;48.184;11.268;2023-04-15T13:32:16;6.88;;;4.07;;
43877;SDS011;29815;48.184;11.268;2023-04-15T13:34:46;10.00;;;4.00;;
43877;SDS011;29815;48.184;11.268;2023-04-15T13:37:15;7.20;;;4.20;;
43877;SDS011;29815;48.184;11.268;2023-04-15T13:39:46;8.60;;;4.63;;
43877;SDS011;29815;48.184;11.268;2023-04-15T13:42:17;6.45;;;3.95;;
43877;SDS011;29815;48.184;11.268;2023-04-15T13:44:46;8.35;;;4.03;;
43877;SDS011;29815;48.184;11.268;2023-04-15T13:47:17;7.30;;;3.72;;
43877;SDS011;29815;48.184;11.268;2023-04-15T13:49:47;5.75;;;3.70;;
43877;SDS011;29815;48.184;11.268;2023-04-15T13:52:19;5.38;;;4.20;;
43877;SDS011;29815;48.184;11.268;2023-04-15T13:54:48;6.32;;;4.13;;
43877;SDS011;29815;48.184;11.268;2023-04-15T13:57:39;6.50;;;3.75;;
43877;SDS011;29815;48.184;11.268;2023-04-15T14:00:09;4.57;;;3.55;;
43877;SDS011;29815;48.184;11.268;2023-04-15T14:02:40;4.72;;;3.15;;
43877;SDS011;29815;48.184;11.268;2023-04-15T14:05:10;4.57;;;3.80;;
43877;SDS011;29815;48.184;11.268;2023-04-15T14:07:40;7.18;;;3.92;;
43877;SDS011;29815;48.184;11.268;2023-04-15T14:10:09;5.10;;;3.20;;
43877;SDS011;29815;48.184;11.268;2023-04-15T14:12:40;4.82;;;3.28;;
43877;SDS011;29815;48.184;11.268;2023-04-15T14:15:10;5.22;;;3.63;;
43877;SDS011;29815;48.184;11.268;2023-04-15T14:17:39;4.55;;;3.50;;
43877;SDS011;29815;48.184;11.268;2023-04-15T14:20:09;7.05;;;3.65;;
43877;SDS011;29815;48.184;11.268;2023-04-15T14:22:43;6.88;;;3.25;;
43877;SDS011;29815;48.184;11.268;2023-04-15T14:25:12;4.80;;;3.55;;
43877;SDS011;29815;48.184;11.268;2023-04-15T14:28:01;4.25;;;3.00;;
43877;SDS011;29815;48.184;11.268;2023-04-15T14:30:31;5.13;;;2.90;;
43877;SDS011;29815;48.184;11.268;2023-04-15T14:33:00;4.47;;;3.00;;
43877;SDS011;29815;48.184;11.268;2023-04-15T14:35:31;4.10;;;2.25;;
43877;SDS011;29815;48.184;11.268;2023-04-15T14:38:00;3.80;;;2.80;;
43877;SDS011;29815;48.184;11.268;2023-04-15T14:40:30;6.03;;;2.78;;
43877;SDS011;29815;48.184;11.268;2023-04-15T14:43:02;4.60;;;3.03;;
43877;SDS011;29815;48.184;11.268;2023-04-15T14:45:32;5.53;;;2.95;;
43877;SDS011;29815;48.184;11.268;2023-04-15T14:48:01;5.20;;;2.80;;
43877;SDS011;29815;48.184;11.268;2023-04-15T14:50:32;4.22;;;2.97;;
43877;SDS011;29815;48.184;11.268;2023-04-15T14:53:02;6.40;;;2.95;;
43877;SDS011;29815;48.184;11.268;2023-04-15T14:55:32;7.03;;;3.05;;
43877;SDS011;29815;48.184;11.268;2023-04-15T14:58:03;8.52;;;3.33;;
43877;SDS011;29815;48.184;11.268;2023-04-15T15:00:34;4.82;;;3.72;;
43877;SDS011;29815;48.184;11.268;2023-04-15T15:03:08;4.72;;;3.08;;
43877;SDS011;29815;48.184;11.268;2023-04-15T15:05:40;5.97;;;3.33;;
43877;SDS011;29815;48.184;11.268;2023-04-15T15:08:12;3.83;;;3.40;;
43877;SDS011;29815;48.184;11.268;2023-04-15T15:10:42;5.57;;;3.88;;
43877;SDS011;29815;48.184;11.268;2023-04-15T15:13:17;7.10;;;3.70;;
43877;SDS011;29815;48.184;11.268;2023-04-15T15:15:47;4.25;;;3.85;;
43877;SDS011;29815;48.184;11.268;2023-04-15T15:18:17;7.07;;;3.95;;